Time;durP1;ratioP1;P1;durP2;ratioP2;P2;SDS_P1;SDS_P2;PMS_P1;PMS_P2;Temp;Humidity;BMP_temperature;BMP_pressure;BME280_temperature;BME280_humidity;BME280_pressure;Samples;Min_cycle;Max_cycle;Signal;HPM_P1;HPM_P2
2021/01/19 00:00:05;;;;;;;;;;;;;;;;;;5055389;28;19909;-35
2021/01/19 00:02:31;;;;;;;;;;;;;;;;;;5055349;28;20008;-35
2021/01/19 00:05:00;;;;;;;;;;;;;;;;;;5055126;28;20347;-36
2021/01/19 00:07:26;;;;;;;;;;;;;;;;;;5054928;28;19924;-37
2021/01/19 00:09:52;;;;;;;;;;;;;;;;;;5055194;28;19986;-36
2021/01/19 00:12:18;;;;;;;;;;;;;;;;;;5055198;28;19948;-36
2021/01/19 00:14:44;;;;;;;;;;;;;;;;;;5055042;28;19917;-36
2021/01/19 00:17:10;;;;;;;;;;;;;;;;;;5054963;28;20379;-36
2021/01/19 00:19:36;;;;;;;;;;;;;;;;;;5054654;28;19909;-39
2021/01/19 00:22:02;;;;;;;;;;;;;;;;;;5054729;28;19909;-36
2021/01/19 00:24:28;;;;;;;;;;;;;;;;;;5054906;28;19962;-39
2021/01/19 00:26:54;;;;;;;;;;;;;;;;;;5054547;28;19963;-37
2021/01/19 00:29:19;;;;;;;;;;;;;;;;;;5055305;28;19915;-36
2021/01/19 00:31:45;;;;;;;;;;;;;;;;;;5054986;28;19908;-36
2021/01/19 00:34:11;;;;;;;;;;;;;;;;;;5054428;28;19917;-35
2021/01/19 00:36:37;;;;;;;;;;;;;;;;;;5054418;28;19908;-36
2021/01/19 00:39:03;;;;;;;;;;;;;;;;;;5054424;28;19915;-36
2021/01/19 00:41:29;;;;;;;;;;;;;;;;;;5054544;28;19909;-37
2021/01/19 00:43:55;;;;;;;;;;;;;;;;;;5054560;28;19935;-36
2021/01/19 00:46:21;;;;;;;;;;;;;;;;;;5054520;28;20340;-36
2021/01/19 00:48:47;;;;;;;;;;;;;;;;;;5054042;28;20284;-36
2021/01/19 00:51:13;;;;;;;;;;;;;;;;;;5054228;28;19912;-39
2021/01/19 00:53:39;;;;;;;;;;;;;;;;;;5053978;28;19917;-36
2021/01/19 00:56:05;;;;;;;;;;;;;;;;;;5052940;28;20427;-36
2021/01/19 00:58:31;;;;;;;;;;;;;;;;;;5054021;28;19909;-38
2021/01/19 01:00:57;;;;;;;;;;;;;;;;;;5054213;28;20182;-36
2021/01/19 01:03:23;;;;;;;;;;;;;;;;;;5053902;28;19909;-36
2021/01/19 01:05:48;;;;;;;;;;;;;;;;;;5053703;28;19916;-37
2021/01/19 01:08:14;;;;;;;;;;;;;;;;;;5053975;28;19958;-37
2021/01/19 01:10:40;;;;;;;;;;;;;;;;;;5053716;28;19913;-36
2021/01/19 01:13:06;;;;;;;;;;;;;;;;;;5053707;28;19924;-37
2021/01/19 01:15:32;;;;;;;;;;;;;;;;;;5053757;28;19909;-37
2021/01/19 01:17:58;;;;;;;;;;;;;;;;;;5053666;28;19909;-38
2021/01/19 01:20:24;;;;;;;;;;;;;;;;;;5053398;28;19908;-36
2021/01/19 01:22:50;;;;;;;;;;;;;;;;;;5053629;28;19915;-36
2021/01/19 01:25:16;;;;;;;;;;;;;;;;;;5054011;28;19952;-37
2021/01/19 01:27:42;;;;;;;;;;;;;;;;;;5053637;28;19975;-37
2021/01/19 01:30:08;;;;;;;;;;;;;;;;;;5053418;28;19909;-40
2021/01/19 01:32:34;;;;;;;;;;;;;;;;;;5053321;28;19962;-36
2021/01/19 01:35:00;;;;;;;;;;;;;;;;;;5053189;28;20000;-35
2021/01/19 01:37:26;;;;;;;;;;;;;;;;;;5053267;28;19909;-37
2021/01/19 01:39:52;;;;;;;;;;;;;;;;;;5053223;28;19916;-36
2021/01/19 01:42:21;;;;;;;;;;;;;;;;;;5053331;28;19916;-36
2021/01/19 01:44:47;;;;;;;;;;;;;;;;;;5053280;28;19916;-35
2021/01/19 01:47:13;;;;;;;;;;;;;;;;;;5053545;28;19909;-37
2021/01/19 01:49:39;;;;;;;;;;;;;;;;;;5053180;28;20321;-36
2021/01/19 01:52:05;;;;;;;;;;;;;;;;;;5053331;28;20257;-40
2021/01/19 01:54:31;;;;;;;;;;;;;;;;;;5053200;28;20301;-37
2021/01/19 01:56:57;;;;;;;;;;;;;;;;;;5053307;28;20371;-37
2021/01/19 01:59:23;;;;;;;;;;;;;;;;;;5053178;28;20364;-37
2021/01/19 02:01:48;;;;;;;;;;;;;;;;;;5053305;28;20340;-36
2021/01/19 02:04:14;;;;;;;;;;;;;;;;;;5053215;28;20356;-36
2021/01/19 02:06:40;;;;;;;;;;;;;;;;;;5052375;28;20459;-36
2021/01/19 02:09:06;;;;;;;;;;;;;;;;;;5052976;28;19963;-36
2021/01/19 02:11:33;;;;;;;;;;;;;;;;;;5052947;28;19913;-36
2021/01/19 02:13:58;;;;;;;;;;;;;;;;;;5052517;28;20352;-37
2021/01/19 02:16:24;;;;;;;;;;;;;;;;;;5052824;28;19999;-36
2021/01/19 02:18:50;;;;;;;;;;;;;;;;;;5052757;28;19909;-35
2021/01/19 02:21:16;;;;;;;;;;;;;;;;;;5052792;28;19908;-36
2021/01/19 02:23:42;;;;;;;;;;;;;;;;;;5052675;28;19995;-37
2021/01/19 02:28:38;;;;;;;;;;;;;;;;;;5071056;28;19930;-39
2021/01/19 02:31:04;;;;;;;;;;;;;;;;;;5072451;28;19934;-37
2021/01/19 02:33:30;;;;;;;;;;;;;;;;;;5072398;28;19916;-36
2021/01/19 02:35:56;;;;;;;;;;;;;;;;;;5072302;28;19983;-40
2021/01/19 02:38:22;;;;;;;;;;;;;;;;;;5072236;28;19920;-36
2021/01/19 02:40:48;;;;;;;;;;;;;;;;;;5072155;28;19915;-36
2021/01/19 02:43:14;;;;;;;;;;;;;;;;;;5054211;28;19909;-36
2021/01/19 02:45:40;;;;;;;;;;;;;;;;;;5072149;28;20003;-37
2021/01/19 02:48:06;;;;;;;;;;;;;;;;;;5072156;28;19908;-36
2021/01/19 02:50:32;;;;;;;;;;;;;;;;;;5072312;28;19908;-36
2021/01/19 02:52:58;;;;;;;;;;;;;;;;;;5072200;28;19923;-37
2021/01/19 02:55:23;;;;;;;;;;;;;;;;;;5072118;28;19912;-39
2021/01/19 02:57:49;;;;;;;;;;;;;;;;;;5071865;28;19918;-36
2021/01/19 03:00:16;;;;;;;;;;;;;;;;;;5071964;28;19909;-37
2021/01/19 03:02:42;;;;;;;;;;;;;;;;;;5071927;28;20421;-41
2021/01/19 03:05:08;;;;;;;;;;;;;;;;;;5071996;28;19908;-37
2021/01/19 03:07:33;;;;;;;;;;;;;;;;;;5072186;28;19999;-36
2021/01/19 03:09:59;;;;;;;;;;;;;;;;;;5072139;28;19958;-37
2021/01/19 03:12:26;;;;;;;;;;;;;;;;;;5071818;28;19916;-36
2021/01/19 03:14:52;;;;;;;;;;;;;;;;;;5071708;28;19916;-37
2021/01/19 03:17:18;;;;;;;;;;;;;;;;;;5071894;28;19915;-36
2021/01/19 03:19:44;;;;;;;;;;;;;;;;;;5075575;28;20053;-35
2021/01/19 03:22:10;;;;;;;;;;;;;;;;;;5075977;28;19909;-37
2021/01/19 03:24:36;;;;;;;;;;;;;;;;;;5076091;28;19909;-37
2021/01/19 03:27:02;;;;;;;;;;;;;;;;;;5075728;28;20393;-37
2021/01/19 03:29:28;;;;;;;;;;;;;;;;;;5075814;28;20311;-36
2021/01/19 03:31:53;;;;;;;;;;;;;;;;;;5075748;28;20456;-35
2021/01/19 03:34:19;;;;;;;;;;;;;;;;;;5057655;28;20334;-38
2021/01/19 03:36:45;;;;;;;;;;;;;;;;;;5075685;28;19951;-36
2021/01/19 03:39:11;;;;;;;;;;;;;;;;;;5075608;28;19909;-36
2021/01/19 03:41:37;;;;;;;;;;;;;;;;;;5075435;28;19999;-35
2021/01/19 03:44:03;;;;;;;;;;;;;;;;;;5075908;28;19909;-40
2021/01/19 03:46:29;;;;;;;;;;;;;;;;;;5075676;28;19941;-36
2021/01/19 03:48:55;;;;;;;;;;;;;;;;;;5075414;28;20267;-36
2021/01/19 03:51:23;;;;;;;;;;;;;;;;;;5075363;28;19989;-37
2021/01/19 03:53:48;;;;;;;;;;;;;;;;;;5075159;28;19970;-37
2021/01/19 03:56:14;;;;;;;;;;;;;;;;;;5075281;28;19908;-36
2021/01/19 03:58:40;;;;;;;;;;;;;;;;;;5075102;28;19955;-36
2021/01/19 04:01:06;;;;;;;;;;;;;;;;;;5075342;28;19915;-36
2021/01/19 04:03:32;;;;;;;;;;;;;;;;;;5075274;28;19916;-36
2021/01/19 04:05:58;;;;;;;;;;;;;;;;;;5075350;28;19909;-36
2021/01/19 04:08:24;;;;;;;;;;;;;;;;;;5075502;28;19912;-36
2021/01/19 04:10:50;;;;;;;;;;;;;;;;;;5075348;28;19916;-36
2021/01/19 04:13:16;;;;;;;;;;;;;;;;;;5074751;28;19939;-36
2021/01/19 04:15:42;;;;;;;;;;;;;;;;;;5074875;28;19951;-35
2021/01/19 04:18:08;;;;;;;;;;;;;;;;;;5074950;28;19908;-36
2021/01/19 04:20:34;;;;;;;;;;;;;;;;;;5074958;28;19915;-36
2021/01/19 04:23:00;;;;;;;;;;;;;;;;;;5074765;28;19908;-36
2021/01/19 04:25:26;;;;;;;;;;;;;;;;;;5074683;28;19913;-35
2021/01/19 04:27:52;;;;;;;;;;;;;;;;;;5074403;28;19985;-36
2021/01/19 04:30:18;;;;;;;;;;;;;;;;;;5074707;28;19952;-36
2021/01/19 04:32:46;;;;;;;;;;;;;;;;;;5074445;28;19962;-39
2021/01/19 04:35:11;;;;;;;;;;;;;;;;;;5074493;28;19915;-35
2021/01/19 04:37:37;;;;;;;;;;;;;;;;;;5074673;28;19909;-37
2021/01/19 04:40:04;;;;;;;;;;;;;;;;;;5074515;28;19909;-37
2021/01/19 04:42:30;;;;;;;;;;;;;;;;;;5074543;28;20043;-36
2021/01/19 04:44:56;;;;;;;;;;;;;;;;;;5074459;28;19995;-36
2021/01/19 04:47:22;;;;;;;;;;;;;;;;;;5074326;28;19908;-37
2021/01/19 04:49:47;;;;;;;;;;;;;;;;;;5074360;28;19967;-36
2021/01/19 04:52:14;;;;;;;;;;;;;;;;;;5074290;28;19908;-37
2021/01/19 04:54:40;;;;;;;;;;;;;;;;;;5074256;28;19924;-36
2021/01/19 04:57:06;;;;;;;;;;;;;;;;;;5074351;28;19908;-38
2021/01/19 04:59:32;;;;;;;;;;;;;;;;;;5074022;28;19956;-36
2021/01/19 05:01:57;;;;;;;;;;;;;;;;;;5074170;28;19962;-36
2021/01/19 05:04:24;;;;;;;;;;;;;;;;;;5074048;28;19909;-36
2021/01/19 05:06:50;;;;;;;;;;;;;;;;;;5073931;28;19909;-36
2021/01/19 05:09:16;;;;;;;;;;;;;;;;;;5073965;28;19915;-36
2021/01/19 05:11:42;;;;;;;;;;;;;;;;;;5073914;28;19969;-36
2021/01/19 05:14:08;;;;;;;;;;;;;;;;;;5073760;28;19920;-37
2021/01/19 05:16:34;;;;;;;;;;;;;;;;;;5073829;28;19936;-36
2021/01/19 05:18:59;;;;;;;;;;;;;;;;;;5073785;28;19916;-36
2021/01/19 05:21:25;;;;;;;;;;;;;;;;;;5073890;28;20007;-37
2021/01/19 05:23:51;;;;;;;;;;;;;;;;;;5073632;28;19909;-37
2021/01/19 05:26:17;;;;;;;;;;;;;;;;;;5073625;28;19909;-36
2021/01/19 05:28:43;;;;;;;;;;;;;;;;;;5073453;28;20287;-36
2021/01/19 05:31:09;;;;;;;;;;;;;;;;;;5073872;28;19908;-36
2021/01/19 05:33:35;;;;;;;;;;;;;;;;;;5073404;28;19917;-36
2021/01/19 05:36:01;;;;;;;;;;;;;;;;;;5073430;28;19909;-38
2021/01/19 05:38:27;;;;;;;;;;;;;;;;;;5073362;28;20003;-37
2021/01/19 05:40:53;;;;;;;;;;;;;;;;;;5072648;28;19962;-36
2021/01/19 05:43:19;;;;;;;;;;;;;;;;;;5073382;28;19916;-37
2021/01/19 05:45:45;;;;;;;;;;;;;;;;;;5073203;28;19909;-37
2021/01/19 05:48:11;;;;;;;;;;;;;;;;;;5073302;28;19940;-36
2021/01/19 05:50:37;;;;;;;;;;;;;;;;;;5073141;28;19908;-36
2021/01/19 05:53:03;;;;;;;;;;;;;;;;;;5072917;28;19916;-37
2021/01/19 05:55:29;;;;;;;;;;;;;;;;;;5073020;28;19915;-37
2021/01/19 05:57:54;;;;;;;;;;;;;;;;;;5072839;28;19912;-37
2021/01/19 06:00:20;;;;;;;;;;;;;;;;;;5072906;28;19912;-37
2021/01/19 06:02:46;;;;;;;;;;;;;;;;;;5072843;28;19961;-38
2021/01/19 06:05:12;;;;;;;;;;;;;;;;;;5073014;28;20001;-37
2021/01/19 06:07:38;;;;;;;;;;;;;;;;;;5073037;28;19909;-36
2021/01/19 06:10:04;;;;;;;;;;;;;;;;;;5072798;28;19962;-37
2021/01/19 06:12:30;;;;;;;;;;;;;;;;;;5072702;28;19978;-37
2021/01/19 06:14:56;;;;;;;;;;;;;;;;;;5072476;28;19924;-37
2021/01/19 06:17:23;;;;;;;;;;;;;;;;;;5071869;28;20345;-38
2021/01/19 06:19:49;;;;;;;;;;;;;;;;;;5072795;28;19991;-37
2021/01/19 06:22:15;;;;;;;;;;;;;;;;;;5072537;28;19916;-36
2021/01/19 06:24:41;;;;;;;;;;;;;;;;;;5072656;28;19953;-37
2021/01/19 06:27:07;;;;;;;;;;;;;;;;;;5072217;28;19921;-36
2021/01/19 06:29:33;;;;;;;;;;;;;;;;;;5072529;28;19909;-37
2021/01/19 06:31:59;;;;;;;;;;;;;;;;;;5072412;28;19930;-38
2021/01/19 06:34:25;;;;;;;;;;;;;;;;;;5072326;28;19917;-36
2021/01/19 06:36:51;;;;;;;;;;;;;;;;;;5072333;28;19916;-37
2021/01/19 06:39:17;;;;;;;;;;;;;;;;;;5072278;28;19908;-37
2021/01/19 06:41:43;;;;;;;;;;;;;;;;;;5072410;28;19916;-36
2021/01/19 06:44:09;;;;;;;;;;;;;;;;;;5072193;28;19958;-40
2021/01/19 06:46:35;;;;;;;;;;;;;;;;;;5072540;28;19916;-36
2021/01/19 06:49:01;;;;;;;;;;;;;;;;;;5072098;28;20352;-39
2021/01/19 06:51:27;;;;;;;;;;;;;;;;;;5072403;28;19908;-38
2021/01/19 06:53:53;;;;;;;;;;;;;;;;;;5071172;28;20275;-36
2021/01/19 06:56:19;;;;;;;;;;;;;;;;;;5072150;28;19930;-37
2021/01/19 06:58:45;;;;;;;;;;;;;;;;;;5072024;28;19913;-37
2021/01/19 07:01:11;;;;;;;;;;;;;;;;;;5072035;28;20248;-37
2021/01/19 07:03:37;;;;;;;;;;;;;;;;;;5072055;28;20252;-36
2021/01/19 07:06:04;;;;;;;;;;;;;;;;;;5071887;28;20270;-36
2021/01/19 07:08:30;;;;;;;;;;;;;;;;;;5071839;28;19908;-37
2021/01/19 07:10:56;;;;;;;;;;;;;;;;;;5071947;28;19916;-37
2021/01/19 07:13:22;;;;;;;;;;;;;;;;;;5071897;28;19970;-36
2021/01/19 07:15:48;;;;;;;;;;;;;;;;;;5071959;28;19995;-38
2021/01/19 07:18:14;;;;;;;;;;;;;;;;;;5072027;28;19916;-36
2021/01/19 07:20:40;;;;;;;;;;;;;;;;;;5071893;28;19908;-36
2021/01/19 07:23:06;;;;;;;;;;;;;;;;;;5071859;28;19912;-39
2021/01/19 07:25:32;;;;;;;;;;;;;;;;;;5071750;28;19946;-37
2021/01/19 07:27:58;;;;;;;;;;;;;;;;;;5071615;28;19936;-35
2021/01/19 07:30:24;;;;;;;;;;;;;;;;;;5071516;28;19915;-36
2021/01/19 07:32:50;;;;;;;;;;;;;;;;;;5071887;28;19909;-36
2021/01/19 07:35:16;;;;;;;;;;;;;;;;;;5072058;28;19920;-36
2021/01/19 07:37:42;;;;;;;;;;;;;;;;;;5071724;28;20332;-37
2021/01/19 07:40:08;;;;;;;;;;;;;;;;;;5071656;28;20275;-36
2021/01/19 07:42:34;;;;;;;;;;;;;;;;;;5071648;28;19917;-37
2021/01/19 07:45:00;;;;;;;;;;;;;;;;;;5071399;28;19909;-39
2021/01/19 07:47:26;;;;;;;;;;;;;;;;;;5071798;28;19983;-36
2021/01/19 07:49:52;;;;;;;;;;;;;;;;;;5071550;28;20364;-36
2021/01/19 07:52:18;;;;;;;;;;;;;;;;;;5071712;28;20391;-36
2021/01/19 07:54:44;;;;;;;;;;;;;;;;;;5071366;28;20386;-36
2021/01/19 07:57:10;;;;;;;;;;;;;;;;;;5071503;28;20417;-36
2021/01/19 07:59:35;;;;;;;;;;;;;;;;;;5071521;28;19916;-36
2021/01/19 08:02:01;;;;;;;;;;;;;;;;;;5071426;28;20382;-36
2021/01/19 08:04:28;;;;;;;;;;;;;;;;;;5072769;28;20367;-36
2021/01/19 08:06:54;;;;;;;;;;;;;;;;;;5075330;28;19909;-36
2021/01/19 08:09:20;;;;;;;;;;;;;;;;;;5075052;28;19915;-36
2021/01/19 08:11:46;;;;;;;;;;;;;;;;;;5075062;28;19908;-36
2021/01/19 08:14:12;;;;;;;;;;;;;;;;;;5074903;28;20388;-37
2021/01/19 08:16:38;;;;;;;;;;;;;;;;;;5074761;28;19909;-36
2021/01/19 08:19:04;;;;;;;;;;;;;;;;;;5075151;28;19996;-36
2021/01/19 08:21:30;;;;;;;;;;;;;;;;;;5074954;28;19962;-36
2021/01/19 08:23:56;;;;;;;;;;;;;;;;;;5074791;28;19959;-36
2021/01/19 08:26:22;;;;;;;;;;;;;;;;;;5074681;28;20309;-36
2021/01/19 08:28:48;;;;;;;;;;;;;;;;;;5074877;28;20261;-36
2021/01/19 08:31:14;;;;;;;;;;;;;;;;;;5074511;28;20534;-36
2021/01/19 08:33:40;;;;;;;;;;;;;;;;;;5074587;28;19916;-38
2021/01/19 08:36:06;;;;;;;;;;;;;;;;;;5074816;28;20003;-36
2021/01/19 08:38:32;;;;;;;;;;;;;;;;;;5074541;28;20343;-36
2021/01/19 08:40:58;;;;;;;;;;;;;;;;;;5074390;28;20268;-36
2021/01/19 08:43:24;;;;;;;;;;;;;;;;;;5074450;28;20256;-35
2021/01/19 08:45:50;;;;;;;;;;;;;;;;;;5075016;28;20409;-36
2021/01/19 08:48:16;;;;;;;;;;;;;;;;;;5074956;28;19916;-37
2021/01/19 08:50:42;;;;;;;;;;;;;;;;;;5074359;28;19909;-36
2021/01/19 08:53:08;;;;;;;;;;;;;;;;;;5074238;28;19916;-36
2021/01/19 08:55:34;;;;;;;;;;;;;;;;;;5074126;28;19909;-36
2021/01/19 08:57:59;;;;;;;;;;;;;;;;;;5074164;28;19950;-37
2021/01/19 09:00:25;;;;;;;;;;;;;;;;;;5073927;28;19944;-35
2021/01/19 09:02:51;;;;;;;;;;;;;;;;;;5074431;28;19912;-36
2021/01/19 09:05:17;;;;;;;;;;;;;;;;;;5074041;28;20347;-37
2021/01/19 09:07:43;;;;;;;;;;;;;;;;;;5074268;28;20355;-37
2021/01/19 09:10:09;;;;;;;;;;;;;;;;;;5074212;28;20340;-37
2021/01/19 09:12:35;;;;;;;;;;;;;;;;;;5073902;28;19909;-36
2021/01/19 09:15:01;;;;;;;;;;;;;;;;;;5073388;28;19917;-36
2021/01/19 09:17:27;;;;;;;;;;;;;;;;;;5073065;28;20003;-35
2021/01/19 09:19:53;;;;;;;;;;;;;;;;;;5074155;28;19909;-36
2021/01/19 09:22:19;;;;;;;;;;;;;;;;;;5073710;28;20379;-37
2021/01/19 09:24:45;;;;;;;;;;;;;;;;;;5073718;28;19909;-37
2021/01/19 09:27:11;;;;;;;;;;;;;;;;;;5073427;28;20395;-36
2021/01/19 09:29:37;;;;;;;;;;;;;;;;;;5073746;28;19915;-36
2021/01/19 09:32:03;;;;;;;;;;;;;;;;;;5073376;28;19908;-36
2021/01/19 09:34:30;;;;;;;;;;;;;;;;;;5073381;28;20286;-42
2021/01/19 09:36:56;;;;;;;;;;;;;;;;;;5073723;28;19959;-36
2021/01/19 09:39:22;;;;;;;;;;;;;;;;;;5073783;28;19909;-37
2021/01/19 09:41:48;;;;;;;;;;;;;;;;;;5073347;28;19913;-36
2021/01/19 09:44:14;;;;;;;;;;;;;;;;;;5073853;28;19916;-37
2021/01/19 09:46:40;;;;;;;;;;;;;;;;;;5073258;28;19908;-36
2021/01/19 09:49:06;;;;;;;;;;;;;;;;;;5073115;28;19912;-36
2021/01/19 09:51:32;;;;;;;;;;;;;;;;;;5073112;28;19963;-36
2021/01/19 09:53:57;;;;;;;;;;;;;;;;;;5073179;28;20019;-36
2021/01/19 09:56:23;;;;;;;;;;;;;;;;;;5073179;28;19908;-38
2021/01/19 09:58:49;;;;;;;;;;;;;;;;;;5073029;28;19916;-37
2021/01/19 10:01:15;;;;;;;;;;;;;;;;;;5072812;28;19961;-37
2021/01/19 10:03:41;;;;;;;;;;;;;;;;;;5072932;28;19951;-37
2021/01/19 10:06:07;;;;;;;;;;;;;;;;;;5073069;28;19912;-37
2021/01/19 10:08:33;;;;;;;;;;;;;;;;;;5073139;28;20346;-38
2021/01/19 10:10:59;;;;;;;;;;;;;;;;;;5072680;28;19913;-37
2021/01/19 10:13:25;;;;;;;;;;;;;;;;;;5072807;28;19917;-37
2021/01/19 10:15:51;;;;;;;;;;;;;;;;;;5072741;28;19919;-38
2021/01/19 10:18:17;;;;;;;;;;;;;;;;;;5072842;28;19935;-36
2021/01/19 10:20:43;;;;;;;;;;;;;;;;;;5072571;28;19912;-36
2021/01/19 10:23:09;;;;;;;;;;;;;;;;;;5072560;28;19992;-37
2021/01/19 10:25:36;;;;;;;;;;;;;;;;;;5072711;28;19916;-38
2021/01/19 10:28:02;;;;;;;;;;;;;;;;;;5071982;28;19946;-37
2021/01/19 10:30:28;;;;;;;;;;;;;;;;;;5072581;28;19909;-36
2021/01/19 10:32:54;;;;;;;;;;;;;;;;;;5072104;28;19912;-37
2021/01/19 10:35:20;;;;;;;;;;;;;;;;;;5072371;28;19909;-37
2021/01/19 10:37:46;;;;;;;;;;;;;;;;;;5072320;28;19938;-36
2021/01/19 10:40:12;;;;;;;;;;;;;;;;;;5072326;28;20046;-37
2021/01/19 10:42:38;;;;;;;;;;;;;;;;;;5072232;28;19909;-37
2021/01/19 10:45:04;;;;;;;;;;;;;;;;;;5072238;28;19909;-37
2021/01/19 10:47:30;;;;;;;;;;;;;;;;;;5072238;28;20406;-36
2021/01/19 10:49:56;;;;;;;;;;;;;;;;;;5072207;28;20258;-37
2021/01/19 10:52:23;;;;;;;;;;;;;;;;;;5072171;28;20389;-36
2021/01/19 10:54:49;;;;;;;;;;;;;;;;;;5071950;28;19970;-38
2021/01/19 10:57:15;;;;;;;;;;;;;;;;;;5072127;28;19913;-37
2021/01/19 10:59:41;;;;;;;;;;;;;;;;;;5072037;28;19909;-37
2021/01/19 11:02:07;;;;;;;;;;;;;;;;;;5071887;28;19909;-38
2021/01/19 11:04:33;;;;;;;;;;;;;;;;;;5072001;28;19916;-36
2021/01/19 11:06:59;;;;;;;;;;;;;;;;;;5072453;28;20835;-36
2021/01/19 11:09:25;;;;;;;;;;;;;;;;;;5071905;28;20279;-37
2021/01/19 11:11:50;;;;;;;;;;;;;;;;;;5071943;28;20424;-37
2021/01/19 11:14:16;;;;;;;;;;;;;;;;;;5071871;28;19923;-36
2021/01/19 11:16:42;;;;;;;;;;;;;;;;;;5071750;28;19916;-36
2021/01/19 11:19:08;;;;;;;;;;;;;;;;;;5072031;28;20362;-38
2021/01/19 11:21:34;;;;;;;;;;;;;;;;;;5072074;28;19908;-37
2021/01/19 11:24:00;;;;;;;;;;;;;;;;;;5071983;28;19912;-39
2021/01/19 11:26:26;;;;;;;;;;;;;;;;;;5071632;28;20020;-37
2021/01/19 11:28:52;;;;;;;;;;;;;;;;;;5071620;28;20356;-39
2021/01/19 11:31:18;;;;;;;;;;;;;;;;;;5071616;28;19909;-38
2021/01/19 11:33:44;;;;;;;;;;;;;;;;;;5071715;28;19956;-37
2021/01/19 11:36:10;;;;;;;;;;;;;;;;;;5071735;28;19962;-37
2021/01/19 11:38:36;;;;;;;;;;;;;;;;;;5071761;28;19913;-39
2021/01/19 11:41:02;;;;;;;;;;;;;;;;;;5076047;28;19908;-39
2021/01/19 11:43:28;;;;;;;;;;;;;;;;;;5075623;28;20429;-39
2021/01/19 11:45:54;;;;;;;;;;;;;;;;;;5075601;28;20316;-38
2021/01/19 11:48:20;;;;;;;;;;;;;;;;;;5075365;28;20294;-40
2021/01/19 11:50:46;;;;;;;;;;;;;;;;;;5075452;28;19909;-38
2021/01/19 11:53:12;;;;;;;;;;;;;;;;;;5075398;28;19975;-40
2021/01/19 11:55:37;;;;;;;;;;;;;;;;;;5075362;28;19908;-39
2021/01/19 11:58:03;;;;;;;;;;;;;;;;;;5075429;28;19908;-38
2021/01/19 12:00:29;;;;;;;;;;;;;;;;;;5075191;28;19908;-39
2021/01/19 12:02:55;;;;;;;;;;;;;;;;;;5075281;28;19909;-39
2021/01/19 12:05:21;;;;;;;;;;;;;;;;;;5075187;28;20359;-40
2021/01/19 12:07:47;;;;;;;;;;;;;;;;;;5075122;28;19931;-39
2021/01/19 12:10:13;;;;;;;;;;;;;;;;;;5075113;28;19940;-39
2021/01/19 12:12:39;;;;;;;;;;;;;;;;;;5075412;28;19908;-39
2021/01/19 12:15:05;;;;;;;;;;;;;;;;;;5075106;28;20019;-39
2021/01/19 12:17:31;;;;;;;;;;;;;;;;;;5074994;28;19909;-39
2021/01/19 12:19:57;;;;;;;;;;;;;;;;;;5075108;28;19913;-39
2021/01/19 12:22:23;;;;;;;;;;;;;;;;;;5075151;28;19978;-39
2021/01/19 12:24:49;;;;;;;;;;;;;;;;;;5074778;28;20321;-39
2021/01/19 12:27:15;;;;;;;;;;;;;;;;;;5074616;28;19928;-38
2021/01/19 12:29:41;;;;;;;;;;;;;;;;;;5074778;28;19997;-39
2021/01/19 12:32:10;;;;;;;;;;;;;;;;;;5074919;28;19915;-38
2021/01/19 12:34:36;;;;;;;;;;;;;;;;;;5074974;28;20022;-38
2021/01/19 12:37:02;;;;;;;;;;;;;;;;;;5074536;28;19908;-38
2021/01/19 12:39:28;;;;;;;;;;;;;;;;;;5074608;28;19919;-40
2021/01/19 12:41:54;;;;;;;;;;;;;;;;;;5074435;28;20007;-39
2021/01/19 12:44:20;;;;;;;;;;;;;;;;;;5074768;28;19909;-39
2021/01/19 12:46:46;;;;;;;;;;;;;;;;;;5074496;28;19915;-39
2021/01/19 12:49:12;;;;;;;;;;;;;;;;;;5074487;28;19996;-39
2021/01/19 12:51:38;;;;;;;;;;;;;;;;;;5074399;28;20382;-41
2021/01/19 12:54:04;;;;;;;;;;;;;;;;;;5074398;28;20363;-38
2021/01/19 12:56:30;;;;;;;;;;;;;;;;;;5074283;28;20427;-38
2021/01/19 12:58:56;;;;;;;;;;;;;;;;;;5074205;28;19908;-38
2021/01/19 13:01:22;;;;;;;;;;;;;;;;;;5074120;28;19909;-39
2021/01/19 13:03:47;;;;;;;;;;;;;;;;;;5074004;28;19944;-39
2021/01/19 13:06:14;;;;;;;;;;;;;;;;;;5074064;28;19913;-39
2021/01/19 13:08:40;;;;;;;;;;;;;;;;;;5073909;28;20352;-40
2021/01/19 13:11:06;;;;;;;;;;;;;;;;;;5074050;28;19964;-40
2021/01/19 13:13:32;;;;;;;;;;;;;;;;;;5073870;28;19970;-39
2021/01/19 13:15:58;;;;;;;;;;;;;;;;;;5073904;28;19962;-40
2021/01/19 13:18:24;;;;;;;;;;;;;;;;;;5073699;28;20003;-39
2021/01/19 13:20:50;;;;;;;;;;;;;;;;;;5074132;28;19934;-40
2021/01/19 13:23:19;;;;;;;;;;;;;;;;;;5074041;28;20275;-39
2021/01/19 13:25:45;;;;;;;;;;;;;;;;;;5073626;28;19934;-41
2021/01/19 13:28:10;;;;;;;;;;;;;;;;;;5073571;28;19924;-39
2021/01/19 13:30:36;;;;;;;;;;;;;;;;;;5073701;28;19912;-39
2021/01/19 13:33:02;;;;;;;;;;;;;;;;;;5073284;28;19927;-40
2021/01/19 13:35:28;;;;;;;;;;;;;;;;;;5073428;28;19918;-40
2021/01/19 13:37:54;;;;;;;;;;;;;;;;;;5073499;28;19955;-40
2021/01/19 13:40:20;;;;;;;;;;;;;;;;;;5073486;28;20224;-39
2021/01/19 13:42:46;;;;;;;;;;;;;;;;;;5073357;28;20325;-38
2021/01/19 13:45:12;;;;;;;;;;;;;;;;;;5073263;28;19999;-38
2021/01/19 13:47:38;;;;;;;;;;;;;;;;;;5073391;28;19909;-38
2021/01/19 13:50:04;;;;;;;;;;;;;;;;;;5073056;28;19961;-38
2021/01/19 13:52:30;;;;;;;;;;;;;;;;;;5073121;28;19909;-37
2021/01/19 13:54:56;;;;;;;;;;;;;;;;;;5072995;28;19930;-37
2021/01/19 13:57:22;;;;;;;;;;;;;;;;;;5073090;28;19909;-38
2021/01/19 13:59:48;;;;;;;;;;;;;;;;;;5072979;28;19912;-38
2021/01/19 14:02:14;;;;;;;;;;;;;;;;;;5072523;28;19908;-39
2021/01/19 14:04:39;;;;;;;;;;;;;;;;;;5072922;28;19908;-38
2021/01/19 14:07:05;;;;;;;;;;;;;;;;;;5072861;28;19913;-39
2021/01/19 14:09:33;;;;;;;;;;;;;;;;;;5073888;28;19917;-38
2021/01/19 14:11:59;;;;;;;;;;;;;;;;;;5072656;28;19915;-37
2021/01/19 14:14:24;;;;;;;;;;;;;;;;;;5074128;28;19916;-37
2021/01/19 14:16:50;;;;;;;;;;;;;;;;;;5072711;28;19908;-37
2021/01/19 14:19:16;;;;;;;;;;;;;;;;;;5072508;28;19909;-37
2021/01/19 14:21:42;;;;;;;;;;;;;;;;;;5072731;28;19909;-37
2021/01/19 14:24:08;;;;;;;;;;;;;;;;;;5072816;28;19943;-37
2021/01/19 14:26:34;;;;;;;;;;;;;;;;;;5072514;28;20395;-36
2021/01/19 14:29:00;;;;;;;;;;;;;;;;;;5072634;28;20270;-38
2021/01/19 14:31:26;;;;;;;;;;;;;;;;;;5072334;28;19909;-38
2021/01/19 14:33:52;;;;;;;;;;;;;;;;;;5072155;28;19924;-37
2021/01/19 14:36:18;;;;;;;;;;;;;;;;;;5072358;28;19908;-37
2021/01/19 14:38:44;;;;;;;;;;;;;;;;;;5072730;28;19995;-36
2021/01/19 14:41:10;;;;;;;;;;;;;;;;;;5072701;28;20055;-38
2021/01/19 14:43:36;;;;;;;;;;;;;;;;;;5073321;28;19969;-37
2021/01/19 14:46:02;;;;;;;;;;;;;;;;;;5072245;28;20352;-37
2021/01/19 14:48:28;;;;;;;;;;;;;;;;;;5072070;28;20387;-36
2021/01/19 14:50:54;;;;;;;;;;;;;;;;;;5072125;28;20264;-37
2021/01/19 14:53:20;;;;;;;;;;;;;;;;;;5072100;28;19912;-36
2021/01/19 14:55:46;;;;;;;;;;;;;;;;;;5072303;28;19951;-37
2021/01/19 14:58:12;;;;;;;;;;;;;;;;;;5072498;28;20266;-37
2021/01/19 15:00:38;;;;;;;;;;;;;;;;;;5072037;28;19909;-37
2021/01/19 15:03:05;;;;;;;;;;;;;;;;;;5072041;28;19909;-37
2021/01/19 15:05:31;;;;;;;;;;;;;;;;;;5072058;28;20023;-36
2021/01/19 15:07:57;;;;;;;;;;;;;;;;;;5072013;28;19991;-36
2021/01/19 15:10:23;;;;;;;;;;;;;;;;;;5071924;28;20413;-37
2021/01/19 15:12:49;;;;;;;;;;;;;;;;;;5071828;28;20310;-37
2021/01/19 15:15:15;;;;;;;;;;;;;;;;;;5071256;28;20053;-37
2021/01/19 15:17:40;;;;;;;;;;;;;;;;;;5072066;28;19909;-36
2021/01/19 15:20:06;;;;;;;;;;;;;;;;;;5071669;28;20300;-37
2021/01/19 15:22:32;;;;;;;;;;;;;;;;;;5071811;28;20271;-37
2021/01/19 15:24:58;;;;;;;;;;;;;;;;;;5072006;28;19909;-41
2021/01/19 15:27:24;;;;;;;;;;;;;;;;;;5071553;28;20387;-38
2021/01/19 15:29:50;;;;;;;;;;;;;;;;;;5071776;28;20363;-36
2021/01/19 15:32:16;;;;;;;;;;;;;;;;;;5071968;28;20114;-37
2021/01/19 15:34:43;;;;;;;;;;;;;;;;;;5071544;28;19916;-38
2021/01/19 15:37:09;;;;;;;;;;;;;;;;;;5071873;28;19916;-37
2021/01/19 15:39:35;;;;;;;;;;;;;;;;;;5071655;28;20322;-37
2021/01/19 15:42:01;;;;;;;;;;;;;;;;;;5071651;28;19909;-37
2021/01/19 15:44:28;;;;;;;;;;;;;;;;;;5071621;28;19962;-37
2021/01/19 15:46:54;;;;;;;;;;;;;;;;;;5071782;28;20352;-37
2021/01/19 15:49:20;;;;;;;;;;;;;;;;;;5071348;28;19934;-37
2021/01/19 15:51:46;;;;;;;;;;;;;;;;;;5071719;28;19909;-37
2021/01/19 15:54:12;;;;;;;;;;;;;;;;;;5071399;28;19970;-38
2021/01/19 15:56:38;;;;;;;;;;;;;;;;;;5071439;28;19951;-36
2021/01/19 15:59:04;;;;;;;;;;;;;;;;;;5071538;28;19912;-37
2021/01/19 16:01:33;;;;;;;;;;;;;;;;;;5071379;28;19961;-36
2021/01/19 16:03:59;;;;;;;;;;;;;;;;;;5071426;28;19909;-37
2021/01/19 16:06:25;;;;;;;;;;;;;;;;;;5071234;28;19916;-37
2021/01/19 16:08:51;;;;;;;;;;;;;;;;;;5071276;28;20415;-38
2021/01/19 16:11:17;;;;;;;;;;;;;;;;;;5071675;28;20050;-36
2021/01/19 16:13:44;;;;;;;;;;;;;;;;;;5071293;28;19923;-37
2021/01/19 16:16:10;;;;;;;;;;;;;;;;;;5071230;28;19909;-36
2021/01/19 16:18:36;;;;;;;;;;;;;;;;;;5071307;28;19915;-38
2021/01/19 16:21:02;;;;;;;;;;;;;;;;;;5071161;28;19999;-36
2021/01/19 16:23:28;;;;;;;;;;;;;;;;;;5071238;28;19955;-37
2021/01/19 16:25:57;;;;;;;;;;;;;;;;;;5073133;28;19926;-38
2021/01/19 16:28:23;;;;;;;;;;;;;;;;;;5074549;28;20264;-37
2021/01/19 16:30:49;;;;;;;;;;;;;;;;;;5075084;28;19915;-36
2021/01/19 16:33:15;;;;;;;;;;;;;;;;;;5074935;28;20421;-37
2021/01/19 16:35:41;;;;;;;;;;;;;;;;;;5074484;28;19908;-36
2021/01/19 16:38:10;;;;;;;;;;;;;;;;;;5074643;28;19909;-36